Time;durP1;ratioP1;P1;durP2;ratioP2;P2;SDS_P1;SDS_P2;PMS_P1;PMS_P2;Temp;Humidity;BMP_temperature;BMP_pressure;BME280_temperature;BME280_humidity;BME280_pressure;Samples;Min_cycle;Max_cycle;Signal;HPM_P1;HPM_P2
2023/08/25 00:00:43;;;;;;;3.37;2.67;;;;;;;18.30;nan;96743.41;5019218;28;20235;-66
2023/08/25 00:03:11;;;;;;;2.87;2.67;;;;;;;18.26;nan;96748.47;5019122;28;20679;-66
2023/08/25 00:05:40;;;;;;;3.00;2.80;;;;;;;18.28;nan;96759.75;5018304;28;20215;-66
2023/08/25 00:08:09;;;;;;;4.67;4.20;;;;;;;18.25;nan;96762.94;5019003;28;20655;-65
2023/08/25 00:10:37;;;;;;;2.87;2.60;;;;;;;18.25;nan;96759.44;5016321;28;20212;-65
2023/08/25 00:13:05;;;;;;;3.63;3.20;;;;;;;18.28;nan;96757.09;5014932;28;20201;-66
2023/08/25 00:15:33;;;;;;;3.47;2.77;;;;;;;18.26;nan;96763.72;5019134;28;20223;-64
2023/08/25 00:18:01;;;;;;;3.40;3.10;;;;;;;18.24;nan;96764.00;5018899;28;20236;-65
2023/08/25 00:20:31;;;;;;;3.23;2.93;;;;;;;18.20;nan;96762.84;5017113;28;20328;-66
2023/08/25 00:22:58;;;;;;;3.13;2.90;;;;;;;18.16;nan;96754.47;5020517;28;20216;-67
2023/08/25 00:25:27;;;;;;;3.27;2.97;;;;;;;18.21;nan;96761.78;5020459;28;20197;-67
2023/08/25 00:27:55;;;;;;;3.23;2.93;;;;;;;18.21;nan;96754.56;5019965;28;20310;-65
2023/08/25 00:30:23;;;;;;;2.93;2.53;;;;;;;18.22;nan;96758.84;5021315;28;20216;-65
2023/08/25 00:32:51;;;;;;;3.30;3.00;;;;;;;18.20;nan;96758.28;5019234;28;20315;-66
2023/08/25 00:35:18;;;;;;;3.60;3.30;;;;;;;18.15;nan;96757.38;5018523;28;20205;-68
2023/08/25 00:37:46;;;;;;;3.60;3.30;;;;;;;18.13;nan;96746.91;5014790;28;20983;-66
2023/08/25 00:40:14;;;;;;;3.53;3.30;;;;;;;18.13;nan;96751.44;5023033;28;20204;-65
2023/08/25 00:42:43;;;;;;;4.30;3.30;;;;;;;18.06;nan;96738.22;4974597;28;20212;-66
2023/08/25 00:45:12;;;;;;;3.80;3.50;;;;;;;18.13;nan;96746.91;4622309;28;21254;-67
2023/08/25 00:47:43;;;;;;;3.77;3.13;;;;;;;18.05;nan;96737.41;4664675;28;25574;-68
2023/08/25 00:50:12;;;;;;;3.83;3.03;;;;;;;18.09;nan;96740.41;4629671;28;20212;-66
2023/08/25 00:52:41;;;;;;;3.60;2.83;;;;;;;18.02;nan;96731.72;4621746;28;22039;-68
2023/08/25 00:55:15;;;;;;;3.47;3.20;;;;;;;18.04;nan;96737.66;4705580;28;20776;-68
2023/08/25 00:57:44;;;;;;;3.00;2.87;;;;;;;18.01;nan;96733.59;4708535;28;21651;-66
2023/08/25 01:00:17;;;;;;;5.67;3.43;;;;;;;17.89;nan;96716.75;4638252;28;20528;-67
2023/08/25 01:02:46;;;;;;;3.37;3.07;;;;;;;17.89;nan;96714.06;4649603;28;20806;-65
2023/08/25 01:05:19;;;;;;;3.67;3.37;;;;;;;17.88;nan;96710.56;4649914;28;21494;-63
2023/08/25 01:07:49;;;;;;;3.60;3.40;;;;;;;17.91;nan;96715.44;4700259;28;20498;-66
2023/08/25 01:10:26;;;;;;;3.70;3.40;;;;;;;17.91;nan;96720.78;4691263;28;20667;-64
2023/08/25 01:13:04;;;;;;;3.53;3.23;;;;;;;17.81;nan;96699.19;4621580;28;21044;-64
2023/08/25 01:15:35;;;;;;;3.03;2.83;;;;;;;17.84;nan;96712.09;4643746;28;21410;-63
2023/08/25 01:18:13;;;;;;;3.50;3.20;;;;;;;17.79;nan;96706.66;4681614;28;23531;-63
2023/08/25 01:20:42;;;;;;;5.10;2.90;;;;;;;17.91;nan;96730.72;4699578;28;21916;-64
2023/08/25 01:23:22;;;;;;;3.53;3.23;;;;;;;17.90;nan;96713.00;4698967;28;21630;-64
2023/08/25 01:25:58;;;;;;;3.97;3.37;;;;;;;17.79;nan;96696.75;4628375;28;21579;-63
2023/08/25 01:28:26;;;;;;;4.13;3.30;;;;;;;17.81;nan;96693.03;4615657;28;21928;-64
2023/08/25 01:30:59;;;;;;;3.43;2.70;;;;;;;17.86;nan;96699.28;4641937;28;20878;-64
2023/08/25 01:33:30;;;;;;;3.70;3.40;;;;;;;17.87;nan;96692.06;4623564;28;21290;-64
2023/08/25 01:36:07;;;;;;;7.53;3.60;;;;;;;17.86;nan;96696.59;4614930;28;21367;-65
2023/08/25 01:38:39;;;;;;;3.17;2.97;;;;;;;17.87;nan;96710.81;4612892;28;20611;-64
2023/08/25 01:41:18;;;;;;;4.33;3.40;;;;;;;17.86;nan;96707.31;4618977;28;21247;-65
2023/08/25 01:43:51;;;;;;;5.03;3.53;;;;;;;17.75;nan;96682.22;4691097;28;20821;-66
2023/08/25 01:46:24;;;;;;;5.47;3.57;;;;;;;17.76;nan;96696.44;4617813;28;21423;-66
2023/08/25 01:48:54;;;;;;;3.93;3.63;;;;;;;17.81;nan;96704.56;4622995;28;20854;-64
2023/08/25 01:51:31;;;;;;;4.00;3.27;;;;;;;17.71;nan;96689.09;4636614;28;20294;-65
2023/08/25 01:54:03;;;;;;;4.17;3.20;;;;;;;17.73;nan;96695.03;4636209;28;21968;-65
2023/08/25 01:56:35;;;;;;;4.27;3.43;;;;;;;17.82;nan;96708.84;4669977;28;20659;-64
2023/08/25 01:59:06;;;;;;;4.03;3.30;;;;;;;17.84;nan;96708.63;4694712;28;21523;-64
2023/08/25 02:01:44;;;;;;;3.50;3.20;;;;;;;17.83;nan;96699.75;4632118;28;25414;-65
2023/08/25 02:04:13;;;;;;;3.80;3.30;;;;;;;17.73;nan;96694.25;4628101;28;20512;-64
2023/08/25 02:06:41;;;;;;;5.03;3.17;;;;;;;17.82;nan;96695.47;4611793;28;21022;-65
2023/08/25 02:09:15;;;;;;;4.33;3.47;;;;;;;17.75;nan;96694.81;4634298;28;21277;-66
2023/08/25 02:11:48;;;;;;;4.63;3.70;;;;;;;17.69;nan;96680.50;4624790;28;21428;-64
2023/08/25 02:14:18;;;;;;;5.40;3.53;;;;;;;17.73;nan;96694.25;4616974;28;22367;-65
2023/08/25 02:16:48;;;;;;;4.50;3.20;;;;;;;17.70;nan;96681.34;4620882;28;21542;-65
2023/08/25 02:19:16;;;;;;;4.63;4.20;;;;;;;17.73;nan;96683.53;4620198;28;22986;-66
2023/08/25 02:21:44;;;;;;;4.90;3.87;;;;;;;17.73;nan;96689.69;4609418;28;20809;-65
2023/08/25 02:24:16;;;;;;;3.20;2.93;;;;;;;17.70;nan;96694.72;4667833;28;22229;-66
2023/08/25 02:26:46;;;;;;;3.80;3.50;;;;;;;17.75;nan;96690.25;4616410;28;20748;-66
2023/08/25 02:29:14;;;;;;;4.37;3.73;;;;;;;17.75;nan;96694.81;4610370;28;20552;-65
2023/08/25 02:31:43;;;;;;;4.47;2.90;;;;;;;17.74;nan;96687.81;4609633;28;20937;-64
2023/08/25 02:34:12;;;;;;;6.17;3.97;;;;;;;17.72;nan;96680.00;4614778;28;20903;-65
2023/08/25 02:36:43;;;;;;;4.43;4.03;;;;;;;17.64;nan;96680.41;4620900;28;20729;-66
2023/08/25 02:39:12;;;;;;;5.10;3.67;;;;;;;17.69;nan;96674.34;4617291;28;20654;-66
2023/08/25 02:41:40;;;;;;;3.50;3.27;;;;;;;17.69;nan;96682.38;4609914;28;21347;-65
2023/08/25 02:44:09;;;;;;;4.10;3.63;;;;;;;17.58;nan;96676.84;4615896;28;21600;-65
2023/08/25 02:46:39;;;;;;;5.20;3.83;;;;;;;17.60;nan;96671.25;4614296;28;21334;-66
2023/08/25 02:49:08;;;;;;;6.37;3.50;;;;;;;17.64;nan;96678.56;4669114;28;21198;-66
2023/08/25 02:51:40;;;;;;;4.30;4.00;;;;;;;17.53;nan;96663.34;4624952;28;22280;-67
2023/08/25 02:54:08;;;;;;;8.20;4.37;;;;;;;17.63;nan;96668.91;4685285;28;20581;-64
2023/08/25 02:56:36;;;;;;;4.43;3.70;;;;;;;17.61;nan;96678.22;4685340;28;21522;-64
2023/08/25 02:59:10;;;;;;;6.60;4.57;;;;;;;17.60;nan;96684.63;4618576;28;20934;-65
2023/08/25 03:01:39;;;;;;;3.60;3.30;;;;;;;17.57;nan;96677.09;4614329;28;21157;-64
2023/08/25 03:04:07;;;;;;;4.10;3.80;;;;;;;17.53;nan;96681.31;4612652;28;20915;-65
2023/08/25 03:06:37;;;;;;;4.47;4.07;;;;;;;17.48;nan;96665.94;4664486;28;20867;-64
2023/08/25 03:09:12;;;;;;;5.73;4.03;;;;;;;17.56;nan;96678.13;4687431;28;21223;-65
2023/08/25 03:11:42;;;;;;;7.17;4.50;;;;;;;17.54;nan;96667.66;4605868;28;21073;-64
2023/08/25 03:14:12;;;;;;;6.77;4.53;;;;;;;17.45;nan;96653.88;4614806;28;21661;-64
2023/08/25 03:16:43;;;;;;;4.53;3.73;;;;;;;17.48;nan;96660.59;4645909;28;21069;-64
2023/08/25 03:19:13;;;;;;;4.37;4.03;;;;;;;17.52;nan;96671.66;4620005;28;21047;-65
2023/08/25 03:21:45;;;;;;;5.20;4.70;;;;;;;17.44;nan;96667.47;4622066;28;21645;-64
2023/08/25 03:24:13;;;;;;;6.17;5.23;;;;;;;17.52;nan;96675.13;4627145;28;21573;-65
2023/08/25 03:26:42;;;;;;;5.73;3.77;;;;;;;17.45;nan;96674.47;4618817;28;21408;-66
2023/08/25 03:29:11;;;;;;;10.67;4.67;;;;;;;17.54;nan;96691.75;4625817;28;21341;-64
2023/08/25 03:31:50;;;;;;;4.10;3.80;;;;;;;17.58;nan;96687.53;4628333;28;21591;-68
2023/08/25 03:34:23;;;;;;;4.40;4.10;;;;;;;17.59;nan;96677.66;4621517;28;21453;-64
2023/08/25 03:36:52;;;;;;;6.27;4.23;;;;;;;17.64;nan;96688.47;4625414;28;21152;-65
2023/08/25 03:39:20;;;;;;;4.23;3.93;;;;;;;17.67;nan;96685.28;4619440;28;20750;-65
2023/08/25 03:41:53;;;;;;;6.80;3.83;;;;;;;17.65;nan;96674.84;4697294;28;20730;-65
2023/08/25 03:44:23;;;;;;;7.53;4.80;;;;;;;17.60;nan;96655.97;4692449;28;21115;-66
2023/08/25 03:46:55;;;;;;;4.47;4.07;;;;;;;17.62;nan;96661.09;4616902;28;21609;-65
2023/08/25 03:49:28;;;;;;;4.83;4.10;;;;;;;17.62;nan;96664.59;4648986;28;21252;-65
2023/08/25 03:51:58;;;;;;;5.43;4.17;;;;;;;17.53;nan;96657.19;4702499;28;21546;-66
2023/08/25 03:54:31;;;;;;;4.83;4.33;;;;;;;17.58;nan;96651.94;4703031;28;21151;-66
2023/08/25 03:57:06;;;;;;;4.37;4.07;;;;;;;17.57;nan;96640.38;4616644;28;20932;-64
2023/08/25 03:59:36;;;;;;;9.80;4.20;;;;;;;17.41;nan;96633.16;4619322;28;21818;-65
2023/08/25 04:02:06;;;;;;;8.50;4.33;;;;;;;17.41;nan;96646.56;4628501;28;20875;-66
2023/08/25 04:04:34;;;;;;;8.77;5.03;;;;;;;17.52;nan;96655.56;4617566;28;20615;-64
2023/08/25 04:07:05;;;;;;;6.30;4.30;;;;;;;17.52;nan;96653.69;4614256;28;21230;-65
2023/08/25 04:09:33;;;;;;;5.40;4.73;;;;;;;17.54;nan;96648.91;4639176;28;21950;-65
2023/08/25 04:12:08;;;;;;;6.70;4.70;;;;;;;17.42;nan;96648.97;4617753;28;25586;-64
2023/08/25 04:14:37;;;;;;;7.50;4.37;;;;;;;17.56;nan;96667.44;4618765;28;25662;-64
2023/08/25 04:17:06;;;;;;;4.70;4.30;;;;;;;17.55;nan;96666.59;4642661;28;21072;-65
2023/08/25 04:19:34;;;;;;;5.10;4.70;;;;;;;17.57;nan;96661.03;4696443;28;20907;-66
2023/08/25 04:22:06;;;;;;;5.07;4.50;;;;;;;17.58;nan;96665.31;4700320;28;20208;-66
2023/08/25 04:24:35;;;;;;;5.80;4.17;;;;;;;17.53;nan;96655.31;4622618;28;20351;-65
2023/08/25 04:27:10;;;;;;;6.53;4.60;;;;;;;17.61;nan;96671.00;4627584;28;21264;-65
2023/08/25 04:29:40;;;;;;;4.83;4.40;;;;;;;17.54;nan;96640.06;4621664;28;22043;-66
2023/08/25 04:32:14;;;;;;;6.80;5.40;;;;;;;17.60;nan;96661.31;4696184;28;20676;-65
2023/08/25 04:34:42;;;;;;;5.87;4.83;;;;;;;17.59;nan;96640.97;4698275;28;21134;-66
2023/08/25 04:37:10;;;;;;;8.10;4.93;;;;;;;17.65;nan;96656.09;4696083;28;21346;-64
2023/08/25 04:39:40;;;;;;;7.23;4.93;;;;;;;17.67;nan;96658.50;4697679;28;21239;-65
2023/08/25 04:42:12;;;;;;;4.67;4.27;;;;;;;17.65;nan;96658.75;4618863;28;21106;-65
2023/08/25 04:44:41;;;;;;;6.40;5.20;;;;;;;17.69;nan;96677.03;4696093;28;21435;-65
2023/08/25 04:47:15;;;;;;;8.23;5.30;;;;;;;17.70;nan;96666.06;4716265;28;21022;-64
2023/08/25 04:49:45;;;;;;;7.00;5.53;;;;;;;17.66;nan;96646.16;4617479;28;20786;-63
2023/08/25 04:52:13;;;;;;;11.83;5.40;;;;;;;17.75;nan;96659.97;4616921;28;21450;-63
2023/08/25 04:54:41;;;;;;;6.20;5.53;;;;;;;17.78;nan;96659.50;4621576;28;20605;-62
2023/08/25 04:57:10;;;;;;;8.57;5.63;;;;;;;17.76;nan;96635.59;4653698;28;20925;-63
2023/08/25 04:59:38;;;;;;;9.20;5.50;;;;;;;17.84;nan;96641.63;4693681;28;21569;-62
2023/08/25 05:02:08;;;;;;;7.13;5.43;;;;;;;17.75;nan;96627.84;4697665;28;21033;-63
2023/08/25 05:04:36;;;;;;;7.10;6.40;;;;;;;17.88;nan;96635.53;4699933;28;20814;-63
2023/08/25 05:07:04;;;;;;;8.03;5.90;;;;;;;17.89;nan;96634.47;4691924;28;20834;-65
2023/08/25 05:09:32;;;;;;;5.83;5.20;;;;;;;17.91;nan;96635.03;4630445;28;20803;-65
2023/08/25 05:12:01;;;;;;;5.43;5.03;;;;;;;17.83;nan;96616.69;4615553;28;20892;-64
2023/08/25 05:14:29;;;;;;;7.63;5.67;;;;;;;17.92;nan;96607.19;4618513;28;20638;-64
2023/08/25 05:16:57;;;;;;;7.97;5.07;;;;;;;18.06;nan;96613.03;4614684;28;21025;-64
2023/08/25 05:19:26;;;;;;;7.50;5.50;;;;;;;18.14;nan;96606.47;4612209;28;20738;-64
2023/08/25 05:21:55;;;;;;;7.33;5.70;;;;;;;18.26;nan;96617.09;4613983;28;21831;-64
2023/08/25 05:24:25;;;;;;;6.13;5.53;;;;;;;18.36;nan;96614.53;4621909;28;21644;-63
2023/08/25 05:26:53;;;;;;;6.73;5.30;;;;;;;18.46;nan;96607.66;4617358;28;21831;-64
2023/08/25 05:29:26;;;;;;;7.67;5.27;;;;;;;18.49;nan;96608.00;4643416;28;21313;-64
2023/08/25 05:31:56;;;;;;;5.27;4.33;;;;;;;18.64;nan;96609.22;4616115;28;20919;-63
2023/08/25 05:34:27;;;;;;;5.50;5.10;;;;;;;18.78;nan;96607.81;4611476;28;20604;-65
2023/08/25 05:36:58;;;;;;;5.73;4.77;;;;;;;18.77;nan;96611.56;4675838;28;20925;-64
2023/08/25 05:39:28;;;;;;;7.20;5.57;;;;;;;18.71;nan;96593.75;4617866;28;20547;-62
2023/08/25 05:42:01;;;;;;;8.77;5.10;;;;;;;18.74;nan;96597.81;4657982;28;20220;-63
2023/08/25 05:44:30;;;;;;;10.30;5.67;;;;;;;18.75;nan;96596.75;4906542;28;20231;-63
2023/08/25 05:46:58;;;;;;;5.37;5.00;;;;;;;18.62;nan;96589.91;5019070;28;20409;-65
2023/08/25 05:49:27;;;;;;;8.37;5.07;;;;;;;18.59;nan;96598.44;5011942;28;20636;-64
2023/08/25 05:51:55;;;;;;;4.93;4.43;;;;;;;18.55;nan;96589.28;5015769;28;20218;-63
2023/08/25 05:54:23;;;;;;;5.07;4.40;;;;;;;18.47;nan;96599.38;5015730;28;20216;-65
2023/08/25 05:56:50;;;;;;;6.77;5.60;;;;;;;18.45;nan;96598.84;5015814;28;20255;-63
2023/08/25 05:59:18;;;;;;;5.43;5.03;;;;;;;18.50;nan;96595.38;5011962;28;20212;-62
2023/08/25 06:01:46;;;;;;;5.13;4.63;;;;;;;18.52;nan;96580.66;5019281;28;20204;-63
2023/08/25 06:04:14;;;;;;;4.67;4.33;;;;;;;18.51;nan;96589.78;5014685;28;20208;-62
2023/08/25 06:06:44;;;;;;;7.67;5.03;;;;;;;18.52;nan;96601.31;5020260;28;20255;-62
2023/08/25 06:09:14;;;;;;;6.37;5.20;;;;;;;18.62;nan;96597.94;4950177;28;20227;-60
2023/08/25 06:11:41;;;;;;;5.17;4.70;;;;;;;18.75;nan;96597.59;5018666;28;20224;-61
2023/08/25 06:14:09;;;;;;;6.30;5.20;;;;;;;18.90;nan;96596.13;4881251;28;20979;-63
2023/08/25 06:16:38;;;;;;;8.10;6.17;;;;;;;18.79;nan;96596.00;5019126;28;20217;-62
2023/08/25 06:19:06;;;;;;;6.37;5.33;;;;;;;18.98;nan;96589.53;5009579;28;20209;-62
2023/08/25 06:21:33;;;;;;;7.63;5.97;;;;;;;19.16;nan;96583.00;5017015;28;20222;-63
2023/08/25 06:24:03;;;;;;;5.77;5.27;;;;;;;19.36;nan;96567.06;5012375;28;20519;-64
2023/08/25 06:26:31;;;;;;;5.50;5.10;;;;;;;19.58;nan;96570.72;5018417;28;20238;-62
2023/08/25 06:28:59;;;;;;;5.40;4.90;;;;;;;19.67;nan;96567.28;5011718;28;20510;-62
2023/08/25 06:31:29;;;;;;;7.03;4.80;;;;;;;20.06;nan;96566.22;5014767;28;20223;-60
2023/08/25 06:33:57;;;;;;;5.80;5.10;;;;;;;20.64;nan;96560.03;5012219;28;20204;-63
2023/08/25 06:36:25;;;;;;;5.47;4.97;;;;;;;20.93;nan;96551.53;5015013;28;20232;-62
2023/08/25 06:38:55;;;;;;;5.03;4.67;;;;;;;20.89;nan;96549.63;5011888;28;20216;-64
2023/08/25 06:41:25;;;;;;;5.93;4.80;;;;;;;21.14;nan;96556.13;5014479;28;20294;-63
2023/08/25 06:43:53;;;;;;;4.47;4.17;;;;;;;21.22;nan;96552.91;4905459;28;20228;-63
2023/08/25 06:46:25;;;;;;;4.33;4.03;;;;;;;21.24;nan;96540.78;5014293;28;20231;-61
2023/08/25 06:48:53;;;;;;;10.47;5.07;;;;;;;21.42;nan;96537.84;5015596;28;20735;-63
2023/08/25 06:51:21;;;;;;;4.27;3.87;;;;;;;21.76;nan;96539.97;5015636;28;20247;-61
2023/08/25 06:53:49;;;;;;;7.43;4.37;;;;;;;22.14;nan;96528.81;5014232;28;20426;-63
2023/08/25 06:56:16;;;;;;;5.20;4.37;;;;;;;22.16;nan;96532.88;5016453;28;20692;-62
2023/08/25 06:58:45;;;;;;;7.20;4.30;;;;;;;21.95;nan;96524.00;5013143;28;20225;-64
2023/08/25 07:01:13;;;;;;;6.43;4.30;;;;;;;21.88;nan;96528.88;5014261;28;20578;-64
2023/08/25 07:03:41;;;;;;;4.07;3.67;;;;;;;21.79;nan;96521.38;5016480;28;20733;-63
2023/08/25 07:06:10;;;;;;;5.13;3.97;;;;;;;21.47;nan;96503.59;5016230;28;20535;-62
2023/08/25 07:08:38;;;;;;;6.50;4.20;;;;;;;21.69;nan;96521.38;5016280;28;20215;-64
2023/08/25 07:11:07;;;;;;;7.80;4.03;;;;;;;21.85;nan;96514.09;5015861;28;20693;-63
2023/08/25 07:13:34;;;;;;;4.50;4.10;;;;;;;21.86;nan;96520.28;5015101;28;20211;-64
2023/08/25 07:16:04;;;;;;;5.50;3.97;;;;;;;21.77;nan;96520.84;5012755;28;20233;-61
2023/08/25 07:18:32;;;;;;;4.57;3.50;;;;;;;21.94;nan;96515.13;4959749;28;20576;-63
2023/08/25 07:21:04;;;;;;;3.97;3.60;;;;;;;22.14;nan;96518.03;4943705;28;20232;-64
2023/08/25 07:23:31;;;;;;;3.90;3.30;;;;;;;22.37;nan;96520.13;5016274;28;20215;-64
2023/08/25 07:25:59;;;;;;;4.10;3.70;;;;;;;22.21;nan;96510.47;5011867;28;20208;-63
2023/08/25 07:28:27;;;;;;;4.77;3.43;;;;;;;22.11;nan;96495.94;5016423;28;20200;-65
2023/08/25 07:30:54;;;;;;;5.17;3.57;;;;;;;22.13;nan;96514.53;5014516;28;20232;-64
2023/08/25 07:33:23;;;;;;;4.23;3.83;;;;;;;22.12;nan;96521.00;5015651;28;20208;-65
2023/08/25 07:35:51;;;;;;;6.90;4.00;;;;;;;22.32;nan;96517.41;5015865;28;20304;-64
2023/08/25 07:38:19;;;;;;;5.17;3.67;;;;;;;22.44;nan;96510.91;5014544;28;20227;-63
2023/08/25 07:40:46;;;;;;;7.23;3.80;;;;;;;22.39;nan;96509.03;5015223;28;20848;-63
2023/08/25 07:43:14;;;;;;;6.07;4.07;;;;;;;22.57;nan;96506.84;5015066;28;20211;-62
2023/08/25 07:45:43;;;;;;;7.17;4.57;;;;;;;22.77;nan;96517.50;5013182;28;20204;-63
2023/08/25 07:48:11;;;;;;;4.10;3.70;;;;;;;22.91;nan;96516.88;5018549;28;20307;-63
2023/08/25 07:50:48;;;;;;;3.87;3.57;;;;;;;22.93;nan;96520.91;4829497;28;20863;-62
2023/08/25 07:53:17;;;;;;;5.43;3.57;;;;;;;23.27;nan;96530.97;4987940;28;20555;-62
2023/08/25 07:55:45;;;;;;;3.57;3.20;;;;;;;23.44;nan;96528.94;5001860;28;20209;-62
2023/08/25 07:58:14;;;;;;;3.40;3.00;;;;;;;23.32;nan;96538.25;5001013;28;20659;-62
2023/08/25 08:00:42;;;;;;;4.30;3.90;;;;;;;23.25;nan;96530.44;5018445;28;20318;-61
2023/08/25 08:03:10;;;;;;;5.47;3.50;;;;;;;23.18;nan;96543.44;5015255;28;20209;-62
2023/08/25 08:05:39;;;;;;;3.40;3.20;;;;;;;23.26;nan;96540.16;5014556;28;20963;-62
2023/08/25 08:08:09;;;;;;;4.00;3.57;;;;;;;23.36;nan;96546.56;4994510;28;20231;-63
2023/08/25 08:10:37;;;;;;;3.77;3.47;;;;;;;23.71;nan;96544.66;5016916;28;20204;-62
2023/08/25 08:13:04;;;;;;;3.50;3.20;;;;;;;23.75;nan;96553.00;5021865;28;20232;-63
2023/08/25 08:15:32;;;;;;;4.27;3.57;;;;;;;23.92;nan;96555.28;5018072;28;20214;-61
2023/08/25 08:18:00;;;;;;;3.33;3.10;;;;;;;24.10;nan;96551.88;5016087;28;20236;-63
2023/08/25 08:20:28;;;;;;;5.67;4.33;;;;;;;24.11;nan;96566.22;4986431;28;20269;-61
2023/08/25 08:22:58;;;;;;;7.03;5.47;;;;;;;24.26;nan;96566.03;4932595;28;20211;-62
2023/08/25 08:25:25;;;;;;;3.80;3.50;;;;;;;24.45;nan;96572.59;5018648;28;20839;-63
2023/08/25 08:27:53;;;;;;;6.53;3.97;;;;;;;24.54;nan;96585.22;5015926;28;20311;-64
2023/08/25 08:30:21;;;;;;;4.07;3.77;;;;;;;24.52;nan;96590.09;5021567;28;20212;-62
2023/08/25 08:32:50;;;;;;;4.33;4.03;;;;;;;24.51;nan;96602.03;5016895;28;20235;-62
2023/08/25 08:35:18;;;;;;;3.70;3.40;;;;;;;24.64;nan;96619.50;5018229;28;20610;-63
2023/08/25 08:37:45;;;;;;;3.90;3.60;;;;;;;24.70;nan;96639.19;4982613;28;20238;-62
2023/08/25 08:40:15;;;;;;;3.77;3.43;;;;;;;24.27;nan;96667.00;5018325;28;20208;-64
2023/08/25 08:42:45;;;;;;;4.83;3.93;;;;;;;24.22;nan;96639.97;5012055;28;20790;-62
2023/08/25 08:45:13;;;;;;;5.30;3.97;;;;;;;24.08;nan;96621.69;5018235;28;20216;-64
2023/08/25 08:47:41;;;;;;;4.03;3.63;;;;;;;24.19;nan;96667.59;5014481;28;20236;-63
2023/08/25 08:50:10;;;;;;;4.03;3.43;;;;;;;24.33;nan;96665.03;5020114;28;20212;-63
2023/08/25 08:52:37;;;;;;;4.50;4.10;;;;;;;24.41;nan;96667.09;4887275;28;20235;-64
2023/08/25 08:55:06;;;;;;;5.77;3.53;;;;;;;24.44;nan;96669.28;5019214;28;20215;-62
2023/08/25 08:57:35;;;;;;;6.13;3.80;;;;;;;24.63;nan;96668.50;5017489;28;20235;-63
2023/08/25 09:00:06;;;;;;;5.43;4.20;;;;;;;24.69;nan;96664.66;5020123;28;20237;-62
2023/08/25 09:02:35;;;;;;;10.63;4.27;;;;;;;25.13;nan;96668.22;5013178;28;20696;-62
2023/08/25 09:05:04;;;;;;;5.63;3.73;;;;;;;25.41;nan;96663.75;5020102;28;20234;-62
2023/08/25 09:07:33;;;;;;;6.23;3.83;;;;;;;25.91;nan;96676.06;5014490;28;20229;-61
2023/08/25 09:10:02;;;;;;;7.70;7.00;;;;;;;26.06;nan;96672.28;5020766;28;20212;-62
2023/08/25 09:12:30;;;;;;;4.73;4.33;;;;;;;26.66;nan;96672.59;4979215;28;21141;-62
2023/08/25 09:14:59;;;;;;;4.53;4.23;;;;;;;26.37;nan;96666.34;5021180;28;20227;-62
2023/08/25 09:17:26;;;;;;;12.83;3.40;;;;;;;26.52;nan;96656.31;5013797;28;20608;-62
2023/08/25 09:20:04;;;;;;;4.40;3.63;;;;;;;26.86;nan;96658.66;5017158;28;20751;-62
2023/08/25 09:22:32;;;;;;;4.97;4.07;;;;;;;26.80;nan;96638.09;5012450;28;20202;-62
2023/08/25 09:24:59;;;;;;;4.00;3.63;;;;;;;27.07;nan;96660.94;5016420;28;20216;-62
2023/08/25 09:27:28;;;;;;;4.40;3.87;;;;;;;26.28;nan;96662.72;4884907;28;20227;-62
2023/08/25 09:30:03;;;;;;;4.70;3.50;;;;;;;26.19;nan;96667.22;5014577;28;20219;-63
2023/08/25 09:32:32;;;;;;;5.10;3.43;;;;;;;25.69;nan;96663.94;5011559;28;20235;-63
2023/08/25 09:35:11;;;;;;;6.20;3.90;;;;;;;25.63;nan;96675.97;5018397;28;20742;-62
2023/08/25 09:37:40;;;;;;;3.60;3.30;;;;;;;25.13;nan;96676.34;5012132;28;20251;-62
2023/08/25 09:40:11;;;;;;;6.03;3.67;;;;;;;24.80;nan;96703.28;5017064;28;20213;-62
2023/08/25 09:42:40;;;;;;;4.40;4.00;;;;;;;24.40;nan;96712.34;5013942;28;20209;-62
2023/08/25 09:45:11;;;;;;;4.20;3.73;;;;;;;24.26;nan;96739.25;5017184;28;20452;-62
2023/08/25 09:47:41;;;;;;;5.07;4.60;;;;;;;23.99;nan;96751.34;4974492;28;20284;-63
2023/08/25 09:50:13;;;;;;;5.00;3.97;;;;;;;23.85;nan;96750.38;5019419;28;20230;-62
2023/08/25 09:52:44;;;;;;;5.90;4.07;;;;;;;23.85;nan;96740.34;5011647;28;20235;-62
2023/08/25 09:55:12;;;;;;;5.73;4.00;;;;;;;23.81;nan;96733.88;5017884;28;20220;-62
2023/08/25 09:57:42;;;;;;;4.47;4.07;;;;;;;23.90;nan;96765.75;4912387;28;20232;-63
2023/08/25 10:00:13;;;;;;;4.70;4.37;;;;;;;24.26;nan;96747.38;5018849;28;20220;-63
2023/08/25 10:02:41;;;;;;;4.53;4.23;;;;;;;24.42;nan;96720.16;4945744;28;22018;-62
2023/08/25 10:05:10;;;;;;;6.40;4.40;;;;;;;24.83;nan;96736.03;4963139;28;20270;-62
2023/08/25 10:07:38;;;;;;;4.43;4.13;;;;;;;24.74;nan;96742.34;5017253;28;20875;-64
2023/08/25 10:10:07;;;;;;;6.87;4.90;;;;;;;24.65;nan;96731.31;5016708;28;20266;-62
2023/08/25 10:12:37;;;;;;;6.57;4.30;;;;;;;24.66;nan;96735.66;5014790;28;20258;-64
2023/08/25 10:15:07;;;;;;;4.17;3.73;;;;;;;24.77;nan;96717.41;5019052;28;20254;-63
2023/08/25 10:17:37;;;;;;;3.33;3.13;;;;;;;24.42;nan;96712.03;5015796;28;20231;-64
2023/08/25 10:20:09;;;;;;;4.03;3.73;;;;;;;24.42;nan;96710.16;5014300;28;20204;-64
2023/08/25 10:22:37;;;;;;;3.80;3.50;;;;;;;24.28;nan;96688.34;5012749;28;20215;-63
2023/08/25 10:25:05;;;;;;;3.53;3.30;;;;;;;23.85;nan;96685.44;5018010;28;20211;-63
2023/08/25 10:27:33;;;;;;;4.43;3.50;;;;;;;23.84;nan;96675.72;5017134;28;20742;-63
2023/08/25 10:30:03;;;;;;;3.70;3.40;;;;;;;23.69;nan;96666.63;5015736;28;20681;-63
2023/08/25 10:32:52;;;;;;;3.63;3.40;;;;;;;23.60;nan;96652.09;4969953;28;20335;-63
2023/08/25 10:35:38;;;;;;;3.37;3.17;;;;;;;23.54;nan;96642.41;5033066;28;20207;-66
2023/08/25 10:38:10;;;;;;;3.83;3.53;;;;;;;23.43;nan;96630.84;5016561;28;20220;-65
2023/08/25 10:40:41;;;;;;;4.70;3.63;;;;;;;23.39;nan;96636.03;5017653;28;20214;-64
2023/08/25 10:43:09;;;;;;;3.60;3.40;;;;;;;23.47;nan;96633.81;5011681;28;20557;-60
2023/08/25 10:45:37;;;;;;;4.30;3.90;;;;;;;23.55;nan;96611.56;5016088;28;20207;-61
2023/08/25 10:48:07;;;;;;;5.00;4.53;;;;;;;23.61;nan;96615.84;5015470;28;20739;-62
2023/08/25 10:50:35;;;;;;;4.00;3.60;;;;;;;23.95;nan;96647.47;5016492;28;20208;-63
2023/08/25 10:53:02;;;;;;;4.97;3.70;;;;;;;24.22;nan;96675.97;5011869;28;20219;-62
2023/08/25 10:55:32;;;;;;;3.77;3.47;;;;;;;24.59;nan;96675.59;5019764;28;20204;-62
2023/08/25 10:58:05;;;;;;;4.03;3.33;;;;;;;24.80;nan;96678.91;5011932;28;20224;-62
2023/08/25 11:00:34;;;;;;;3.87;3.57;;;;;;;24.96;nan;96691.16;5015657;28;20715;-64
2023/08/25 11:03:02;;;;;;;4.13;3.83;;;;;;;25.00;nan;96681.41;5013510;28;20200;-62
2023/08/25 11:05:45;;;;;;;3.97;3.67;;;;;;;25.10;nan;96675.00;5018139;28;20211;-64
2023/08/25 11:08:30;;;;;;;4.30;3.90;;;;;;;25.35;nan;96655.97;4890235;28;21275;-63
2023/08/25 11:11:14;;;;;;;3.77;3.30;;;;;;;25.64;nan;96685.72;5014020;28;20211;-63
2023/08/25 11:13:43;;;;;;;6.20;3.07;;;;;;;25.63;nan;96697.66;5011443;28;20230;-63
2023/08/25 11:16:12;;;;;;;3.67;3.37;;;;;;;25.35;nan;96678.50;5016373;28;20226;-64
2023/08/25 11:18:41;;;;;;;4.10;3.80;;;;;;;25.08;nan;96666.38;5011037;28;20211;-63
2023/08/25 11:21:10;;;;;;;3.43;3.23;;;;;;;24.99;nan;96663.50;5016754;28;20249;-62
2023/08/25 11:23:39;;;;;;;4.87;3.47;;;;;;;25.12;nan;96650.34;5011872;28;20239;-64
2023/08/25 11:26:08;;;;;;;4.10;3.77;;;;;;;25.26;nan;96655.84;5015846;28;20221;-62
2023/08/25 11:28:36;;;;;;;3.67;3.37;;;;;;;25.19;nan;96652.69;5011788;28;20208;-62
2023/08/25 11:31:04;;;;;;;4.00;3.60;;;;;;;25.39;nan;96662.47;5015342;28;20211;-62
2023/08/25 11:33:33;;;;;;;4.37;3.93;;;;;;;25.53;nan;96665.25;5012513;28;20847;-62
2023/08/25 11:36:02;;;;;;;3.70;3.50;;;;;;;25.45;nan;96658.56;5019909;28;20212;-63
2023/08/25 11:38:31;;;;;;;4.57;3.23;;;;;;;25.21;nan;96672.19;5016792;28;20227;-64
2023/08/25 11:40:59;;;;;;;3.47;3.17;;;;;;;25.13;nan;96658.16;5019945;28;20277;-64
2023/08/25 11:43:32;;;;;;;3.70;3.50;;;;;;;25.17;nan;96660.28;4911176;28;20695;-62
2023/08/25 11:46:00;;;;;;;4.07;3.77;;;;;;;24.75;nan;96652.69;5016907;28;20227;-62
2023/08/25 11:48:28;;;;;;;3.73;3.43;;;;;;;24.89;nan;96649.28;5015504;28;20278;-62
2023/08/25 11:50:56;;;;;;;3.90;3.60;;;;;;;24.57;nan;96660.44;5018796;28;20280;-62
2023/08/25 11:53:24;;;;;;;3.67;3.40;;;;;;;24.46;nan;96672.50;5013733;28;20228;-64
2023/08/25 11:56:00;;;;;;;5.27;3.73;;;;;;;24.61;nan;96670.69;5015779;28;20199;-63
2023/08/25 11:58:32;;;;;;;4.47;3.10;;;;;;;25.08;nan;96679.13;5015123;28;20666;-63
2023/08/25 12:01:01;;;;;;;4.20;3.90;;;;;;;25.53;nan;96682.34;5014341;28;21213;-62
2023/08/25 12:03:29;;;;;;;3.80;3.50;;;;;;;25.82;nan;96683.25;5017870;28;20212;-63